sensor_id;sensor_type;location;lat;lon;timestamp;P1;durP1;ratioP1;P2;durP2;ratioP2
69253;SDS011;56364;41.816;12.448;2023-02-13T00:00:12;36.70;;;16.40;;
69253;SDS011;56364;41.816;12.448;2023-02-13T00:02:40;43.90;;;17.00;;
69253;SDS011;56364;41.816;12.448;2023-02-13T00:05:06;32.60;;;14.48;;
69253;SDS011;56364;41.816;12.448;2023-02-13T00:07:32;35.47;;;15.38;;
69253;SDS011;56364;41.816;12.448;2023-02-13T00:09:58;33.08;;;14.90;;
69253;SDS011;56364;41.816;12.448;2023-02-13T00:12:24;40.85;;;16.80;;
69253;SDS011;56364;41.816;12.448;2023-02-13T00:14:51;45.58;;;16.27;;
69253;SDS011;56364;41.816;12.448;2023-02-13T00:17:18;40.83;;;16.58;;
69253;SDS011;56364;41.816;12.448;2023-02-13T00:19:44;37.25;;;15.85;;
69253;SDS011;56364;41.816;12.448;2023-02-13T00:22:10;37.50;;;14.18;;
69253;SDS011;56364;41.816;12.448;2023-02-13T00:24:36;37.53;;;16.98;;
69253;SDS011;56364;41.816;12.448;2023-02-13T00:27:02;42.33;;;16.20;;
69253;SDS011;56364;41.816;12.448;2023-02-13T00:29:28;39.63;;;15.32;;
69253;SDS011;56364;41.816;12.448;2023-02-13T00:31:54;36.55;;;15.10;;
69253;SDS011;56364;41.816;12.448;2023-02-13T00:34:21;40.75;;;15.65;;
69253;SDS011;56364;41.816;12.448;2023-02-13T00:36:47;39.67;;;14.98;;
69253;SDS011;56364;41.816;12.448;2023-02-13T00:39:13;30.90;;;15.52;;
69253;SDS011;56364;41.816;12.448;2023-02-13T00:41:39;31.42;;;15.45;;
69253;SDS011;56364;41.816;12.448;2023-02-13T00:44:05;43.30;;;16.88;;
69253;SDS011;56364;41.816;12.448;2023-02-13T00:46:32;34.13;;;14.82;;
69253;SDS011;56364;41.816;12.448;2023-02-13T00:48:58;32.95;;;13.73;;
69253;SDS011;56364;41.816;12.448;2023-02-13T00:51:24;33.63;;;14.15;;
69253;SDS011;56364;41.816;12.448;2023-02-13T00:53:50;39.53;;;14.00;;
69253;SDS011;56364;41.816;12.448;2023-02-13T00:56:16;35.58;;;14.07;;
69253;SDS011;56364;41.816;12.448;2023-02-13T00:58:42;33.88;;;14.90;;
69253;SDS011;56364;41.816;12.448;2023-02-13T01:01:08;31.00;;;13.00;;
69253;SDS011;56364;41.816;12.448;2023-02-13T01:03:34;36.17;;;14.10;;
69253;SDS011;56364;41.816;12.448;2023-02-13T01:06:05;34.35;;;13.30;;
69253;SDS011;56364;41.816;12.448;2023-02-13T01:08:57;35.00;;;13.50;;
69253;SDS011;56364;41.816;12.448;2023-02-13T01:11:23;37.40;;;13.95;;
69253;SDS011;56364;41.816;12.448;2023-02-13T01:13:49;40.20;;;13.70;;
69253;SDS011;56364;41.816;12.448;2023-02-13T01:16:15;29.17;;;11.40;;
69253;SDS011;56364;41.816;12.448;2023-02-13T01:18:42;30.67;;;12.43;;
69253;SDS011;56364;41.816;12.448;2023-02-13T01:21:13;31.13;;;12.80;;
69253;SDS011;56364;41.816;12.448;2023-02-13T01:23:40;26.40;;;10.65;;
69253;SDS011;56364;41.816;12.448;2023-02-13T01:26:06;26.27;;;10.63;;
69253;SDS011;56364;41.816;12.448;2023-02-13T01:28:33;26.00;;;10.00;;
69253;SDS011;56364;41.816;12.448;2023-02-13T01:30:59;23.33;;;9.13;;
69253;SDS011;56364;41.816;12.448;2023-02-13T01:33:26;31.13;;;10.60;;
69253;SDS011;56364;41.816;12.448;2023-02-13T01:35:52;26.23;;;9.75;;
69253;SDS011;56364;41.816;12.448;2023-02-13T01:38:18;19.58;;;9.93;;
69253;SDS011;56364;41.816;12.448;2023-02-13T01:40:48;18.23;;;9.20;;
69253;SDS011;56364;41.816;12.448;2023-02-13T01:43:15;28.23;;;9.85;;
69253;SDS011;56364;41.816;12.448;2023-02-13T01:45:41;21.40;;;9.05;;
69253;SDS011;56364;41.816;12.448;2023-02-13T01:48:13;20.20;;;9.00;;
69253;SDS011;56364;41.816;12.448;2023-02-13T01:50:49;22.65;;;9.77;;
69253;SDS011;56364;41.816;12.448;2023-02-13T01:53:18;23.23;;;10.10;;
69253;SDS011;56364;41.816;12.448;2023-02-13T01:55:47;24.73;;;9.43;;
69253;SDS011;56364;41.816;12.448;2023-02-13T01:58:15;28.85;;;10.52;;
69253;SDS011;56364;41.816;12.448;2023-02-13T02:00:42;22.92;;;10.90;;
69253;SDS011;56364;41.816;12.448;2023-02-13T02:03:14;27.08;;;9.77;;
69253;SDS011;56364;41.816;12.448;2023-02-13T02:05:43;27.95;;;11.73;;
69253;SDS011;56364;41.816;12.448;2023-02-13T02:08:09;21.95;;;9.18;;
69253;SDS011;56364;41.816;12.448;2023-02-13T02:10:37;27.63;;;10.40;;
69253;SDS011;56364;41.816;12.448;2023-02-13T02:13:05;27.15;;;10.48;;
69253;SDS011;56364;41.816;12.448;2023-02-13T02:15:32;26.40;;;9.57;;
69253;SDS011;56364;41.816;12.448;2023-02-13T02:17:58;22.60;;;9.55;;
69253;SDS011;56364;41.816;12.448;2023-02-13T02:33:32;18.45;;;8.10;;
69253;SDS011;56364;41.816;12.448;2023-02-13T02:38:39;20.55;;;8.60;;
69253;SDS011;56364;41.816;12.448;2023-02-13T02:41:08;30.13;;;8.48;;
69253;SDS011;56364;41.816;12.448;2023-02-13T02:43:54;17.42;;;7.57;;
69253;SDS011;56364;41.816;12.448;2023-02-13T02:46:35;11.77;;;6.53;;
69253;SDS011;56364;41.816;12.448;2023-02-13T02:57:10;20.73;;;6.97;;
69253;SDS011;56364;41.816;12.448;2023-02-13T02:59:38;17.88;;;6.85;;
69253;SDS011;56364;41.816;12.448;2023-02-13T03:02:24;15.70;;;7.32;;
69253;SDS011;56364;41.816;12.448;2023-02-13T03:05:14;17.15;;;7.07;;
69253;SDS011;56364;41.816;12.448;2023-02-13T03:08:01;12.82;;;6.00;;
69253;SDS011;56364;41.816;12.448;2023-02-13T03:10:28;13.02;;;6.80;;
69253;SDS011;56364;41.816;12.448;2023-02-13T03:13:27;15.60;;;6.40;;
69253;SDS011;56364;41.816;12.448;2023-02-13T03:15:56;12.52;;;6.28;;
69253;SDS011;56364;41.816;12.448;2023-02-13T03:18:43;22.33;;;6.95;;
69253;SDS011;56364;41.816;12.448;2023-02-13T03:38:21;21.52;;;7.32;;
69253;SDS011;56364;41.816;12.448;2023-02-13T03:40:50;13.90;;;6.43;;
69253;SDS011;56364;41.816;12.448;2023-02-13T03:43:59;13.65;;;5.20;;
69253;SDS011;56364;41.816;12.448;2023-02-13T03:46:29;10.27;;;4.15;;
69253;SDS011;56364;41.816;12.448;2023-02-13T03:48:56;15.73;;;5.70;;
69253;SDS011;56364;41.816;12.448;2023-02-13T03:51:43;19.10;;;6.00;;
69253;SDS011;56364;41.816;12.448;2023-02-13T03:56:41;14.30;;;5.38;;
69253;SDS011;56364;41.816;12.448;2023-02-13T04:02:15;11.02;;;4.10;;
69253;SDS011;56364;41.816;12.448;2023-02-13T04:04:45;9.38;;;4.78;;
69253;SDS011;56364;41.816;12.448;2023-02-13T04:07:15;9.95;;;4.22;;
69253;SDS011;56364;41.816;12.448;2023-02-13T04:09:57;11.57;;;4.40;;
69253;SDS011;56364;41.816;12.448;2023-02-13T04:12:35;11.18;;;4.30;;
69253;SDS011;56364;41.816;12.448;2023-02-13T04:17:32;8.90;;;3.88;;
69253;SDS011;56364;41.816;12.448;2023-02-13T04:20:00;16.17;;;5.22;;
69253;SDS011;56364;41.816;12.448;2023-02-13T04:22:27;10.15;;;3.97;;
69253;SDS011;56364;41.816;12.448;2023-02-13T04:24:53;14.98;;;5.10;;
69253;SDS011;56364;41.816;12.448;2023-02-13T04:27:19;10.27;;;4.93;;
69253;SDS011;56364;41.816;12.448;2023-02-13T04:29:45;13.40;;;5.03;;
69253;SDS011;56364;41.816;12.448;2023-02-13T04:32:11;13.00;;;5.40;;
69253;SDS011;56364;41.816;12.448;2023-02-13T04:34:38;11.52;;;4.40;;
69253;SDS011;56364;41.816;12.448;2023-02-13T04:37:04;10.75;;;5.05;;
69253;SDS011;56364;41.816;12.448;2023-02-13T04:39:30;12.15;;;4.28;;
69253;SDS011;56364;41.816;12.448;2023-02-13T04:41:56;12.93;;;5.68;;
69253;SDS011;56364;41.816;12.448;2023-02-13T04:44:22;9.60;;;4.63;;
69253;SDS011;56364;41.816;12.448;2023-02-13T04:46:48;15.48;;;4.63;;
69253;SDS011;56364;41.816;12.448;2023-02-13T04:49:14;10.63;;;4.93;;
69253;SDS011;56364;41.816;12.448;2023-02-13T04:51:40;8.57;;;4.80;;
69253;SDS011;56364;41.816;12.448;2023-02-13T04:54:06;8.07;;;4.57;;
69253;SDS011;56364;41.816;12.448;2023-02-13T04:56:32;10.18;;;4.70;;
69253;SDS011;56364;41.816;12.448;2023-02-13T04:58:58;14.00;;;4.75;;
69253;SDS011;56364;41.816;12.448;2023-02-13T05:01:24;11.35;;;4.38;;
69253;SDS011;56364;41.816;12.448;2023-02-13T05:03:50;15.52;;;5.00;;
69253;SDS011;56364;41.816;12.448;2023-02-13T05:06:16;9.75;;;3.90;;
69253;SDS011;56364;41.816;12.448;2023-02-13T05:08:42;12.15;;;4.25;;
69253;SDS011;56364;41.816;12.448;2023-02-13T05:11:08;13.70;;;4.85;;
69253;SDS011;56364;41.816;12.448;2023-02-13T05:13:34;12.48;;;4.72;;
69253;SDS011;56364;41.816;12.448;2023-02-13T05:16:00;11.65;;;5.35;;
69253;SDS011;56364;41.816;12.448;2023-02-13T05:18:27;9.05;;;3.60;;
69253;SDS011;56364;41.816;12.448;2023-02-13T05:20:53;14.82;;;4.30;;
69253;SDS011;56364;41.816;12.448;2023-02-13T05:23:37;13.65;;;3.90;;
69253;SDS011;56364;41.816;12.448;2023-02-13T05:26:03;9.75;;;3.83;;
69253;SDS011;56364;41.816;12.448;2023-02-13T05:28:29;10.63;;;4.07;;
69253;SDS011;56364;41.816;12.448;2023-02-13T05:31:14;9.60;;;3.67;;
69253;SDS011;56364;41.816;12.448;2023-02-13T05:33:40;12.43;;;4.65;;
69253;SDS011;56364;41.816;12.448;2023-02-13T05:36:06;12.40;;;4.15;;
69253;SDS011;56364;41.816;12.448;2023-02-13T05:38:32;14.32;;;4.82;;
69253;SDS011;56364;41.816;12.448;2023-02-13T05:40:59;11.63;;;4.22;;
69253;SDS011;56364;41.816;12.448;2023-02-13T05:43:25;10.55;;;4.03;;
69253;SDS011;56364;41.816;12.448;2023-02-13T05:45:59;10.45;;;4.35;;
69253;SDS011;56364;41.816;12.448;2023-02-13T05:48:25;11.25;;;3.50;;
69253;SDS011;56364;41.816;12.448;2023-02-13T05:50:51;6.78;;;3.90;;
69253;SDS011;56364;41.816;12.448;2023-02-13T05:53:17;9.70;;;4.10;;
69253;SDS011;56364;41.816;12.448;2023-02-13T05:55:43;10.73;;;3.70;;
69253;SDS011;56364;41.816;12.448;2023-02-13T05:58:10;12.55;;;4.30;;
69253;SDS011;56364;41.816;12.448;2023-02-13T06:00:37;16.50;;;5.53;;
69253;SDS011;56364;41.816;12.448;2023-02-13T06:03:03;9.65;;;4.47;;
69253;SDS011;56364;41.816;12.448;2023-02-13T06:05:31;13.25;;;4.78;;
69253;SDS011;56364;41.816;12.448;2023-02-13T06:08:00;14.02;;;5.00;;
69253;SDS011;56364;41.816;12.448;2023-02-13T06:10:26;12.57;;;3.58;;
69253;SDS011;56364;41.816;12.448;2023-02-13T06:12:52;16.23;;;4.65;;
69253;SDS011;56364;41.816;12.448;2023-02-13T06:15:19;12.93;;;4.82;;
69253;SDS011;56364;41.816;12.448;2023-02-13T06:17:45;13.27;;;5.25;;
69253;SDS011;56364;41.816;12.448;2023-02-13T06:20:14;10.23;;;4.20;;
69253;SDS011;56364;41.816;12.448;2023-02-13T06:22:41;9.77;;;4.13;;
69253;SDS011;56364;41.816;12.448;2023-02-13T06:25:09;7.90;;;3.80;;
69253;SDS011;56364;41.816;12.448;2023-02-13T06:27:38;11.02;;;4.53;;
69253;SDS011;56364;41.816;12.448;2023-02-13T06:30:04;13.98;;;4.10;;
69253;SDS011;56364;41.816;12.448;2023-02-13T06:32:30;12.00;;;4.63;;
69253;SDS011;56364;41.816;12.448;2023-02-13T06:34:57;10.95;;;5.00;;
69253;SDS011;56364;41.816;12.448;2023-02-13T06:37:23;13.80;;;5.20;;
69253;SDS011;56364;41.816;12.448;2023-02-13T06:39:49;13.23;;;4.65;;
69253;SDS011;56364;41.816;12.448;2023-02-13T06:42:15;10.93;;;4.18;;
69253;SDS011;56364;41.816;12.448;2023-02-13T06:44:42;15.93;;;4.40;;
69253;SDS011;56364;41.816;12.448;2023-02-13T06:47:09;12.52;;;5.57;;
69253;SDS011;56364;41.816;12.448;2023-02-13T06:49:36;11.15;;;4.50;;
69253;SDS011;56364;41.816;12.448;2023-02-13T06:52:02;11.60;;;5.25;;
69253;SDS011;56364;41.816;12.448;2023-02-13T06:54:30;11.95;;;4.72;;
69253;SDS011;56364;41.816;12.448;2023-02-13T06:56:56;11.65;;;4.20;;
69253;SDS011;56364;41.816;12.448;2023-02-13T06:59:23;12.98;;;4.28;;
69253;SDS011;56364;41.816;12.448;2023-02-13T07:01:50;8.38;;;3.67;;
69253;SDS011;56364;41.816;12.448;2023-02-13T07:04:19;12.85;;;5.43;;
69253;SDS011;56364;41.816;12.448;2023-02-13T07:06:45;10.15;;;4.28;;
69253;SDS011;56364;41.816;12.448;2023-02-13T07:09:11;10.40;;;4.40;;
69253;SDS011;56364;41.816;12.448;2023-02-13T07:11:37;11.20;;;4.38;;
69253;SDS011;56364;41.816;12.448;2023-02-13T07:14:08;9.43;;;4.35;;
69253;SDS011;56364;41.816;12.448;2023-02-13T07:16:34;11.48;;;4.38;;
69253;SDS011;56364;41.816;12.448;2023-02-13T07:19:04;10.55;;;4.03;;
69253;SDS011;56364;41.816;12.448;2023-02-13T07:21:30;16.85;;;4.93;;
69253;SDS011;56364;41.816;12.448;2023-02-13T07:24:00;12.27;;;4.93;;
69253;SDS011;56364;41.816;12.448;2023-02-13T07:26:27;8.98;;;5.00;;
69253;SDS011;56364;41.816;12.448;2023-02-13T07:28:53;10.88;;;4.80;;
69253;SDS011;56364;41.816;12.448;2023-02-13T07:31:19;10.23;;;4.65;;
69253;SDS011;56364;41.816;12.448;2023-02-13T07:33:48;9.82;;;3.80;;
69253;SDS011;56364;41.816;12.448;2023-02-13T07:36:14;6.93;;;3.30;;
69253;SDS011;56364;41.816;12.448;2023-02-13T07:38:41;7.88;;;4.05;;
69253;SDS011;56364;41.816;12.448;2023-02-13T07:41:07;9.05;;;4.07;;
69253;SDS011;56364;41.816;12.448;2023-02-13T07:43:33;12.75;;;5.70;;
69253;SDS011;56364;41.816;12.448;2023-02-13T07:46:00;15.27;;;6.60;;
69253;SDS011;56364;41.816;12.448;2023-02-13T07:48:26;9.35;;;4.30;;
69253;SDS011;56364;41.816;12.448;2023-02-13T07:50:53;10.50;;;3.53;;
69253;SDS011;56364;41.816;12.448;2023-02-13T07:53:19;9.40;;;3.90;;
69253;SDS011;56364;41.816;12.448;2023-02-13T07:55:46;7.55;;;3.95;;
69253;SDS011;56364;41.816;12.448;2023-02-13T07:58:27;13.10;;;4.00;;
69253;SDS011;56364;41.816;12.448;2023-02-13T08:00:53;9.85;;;3.50;;
69253;SDS011;56364;41.816;12.448;2023-02-13T08:03:19;10.50;;;4.15;;
69253;SDS011;56364;41.816;12.448;2023-02-13T08:05:46;10.13;;;3.60;;
69253;SDS011;56364;41.816;12.448;2023-02-13T08:08:13;9.55;;;3.40;;
69253;SDS011;56364;41.816;12.448;2023-02-13T08:10:39;8.50;;;3.47;;
69253;SDS011;56364;41.816;12.448;2023-02-13T08:13:24;8.73;;;3.58;;
69253;SDS011;56364;41.816;12.448;2023-02-13T08:15:53;13.98;;;4.43;;
69253;SDS011;56364;41.816;12.448;2023-02-13T08:18:19;10.80;;;3.83;;
69253;SDS011;56364;41.816;12.448;2023-02-13T08:20:45;9.07;;;3.92;;
69253;SDS011;56364;41.816;12.448;2023-02-13T08:23:11;7.95;;;4.03;;
69253;SDS011;56364;41.816;12.448;2023-02-13T08:25:38;9.77;;;3.92;;
69253;SDS011;56364;41.816;12.448;2023-02-13T08:28:04;11.10;;;4.05;;
69253;SDS011;56364;41.816;12.448;2023-02-13T08:30:33;9.20;;;4.30;;
69253;SDS011;56364;41.816;12.448;2023-02-13T08:33:02;8.88;;;3.80;;
69253;SDS011;56364;41.816;12.448;2023-02-13T08:35:28;12.20;;;3.85;;
69253;SDS011;56364;41.816;12.448;2023-02-13T08:37:55;12.77;;;3.50;;
69253;SDS011;56364;41.816;12.448;2023-02-13T08:40:22;8.45;;;3.40;;
69253;SDS011;56364;41.816;12.448;2023-02-13T08:42:48;9.57;;;4.28;;
69253;SDS011;56364;41.816;12.448;2023-02-13T08:45:14;13.38;;;3.90;;
69253;SDS011;56364;41.816;12.448;2023-02-13T08:47:40;14.93;;;3.85;;
69253;SDS011;56364;41.816;12.448;2023-02-13T08:50:06;10.07;;;4.38;;
69253;SDS011;56364;41.816;12.448;2023-02-13T08:52:33;8.70;;;3.30;;
69253;SDS011;56364;41.816;12.448;2023-02-13T08:54:59;7.90;;;3.83;;
69253;SDS011;56364;41.816;12.448;2023-02-13T08:57:27;11.93;;;3.30;;
69253;SDS011;56364;41.816;12.448;2023-02-13T08:59:55;6.55;;;3.50;;
69253;SDS011;56364;41.816;12.448;2023-02-13T09:02:21;10.63;;;3.83;;
69253;SDS011;56364;41.816;12.448;2023-02-13T09:04:47;10.77;;;4.43;;
69253;SDS011;56364;41.816;12.448;2023-02-13T09:07:13;7.30;;;3.10;;
69253;SDS011;56364;41.816;12.448;2023-02-13T09:09:39;11.43;;;3.65;;
69253;SDS011;56364;41.816;12.448;2023-02-13T09:12:05;8.07;;;3.40;;
69253;SDS011;56364;41.816;12.448;2023-02-13T09:14:33;9.00;;;2.90;;
69253;SDS011;56364;41.816;12.448;2023-02-13T09:16:59;5.95;;;2.22;;
69253;SDS011;56364;41.816;12.448;2023-02-13T09:19:26;8.05;;;3.33;;
69253;SDS011;56364;41.816;12.448;2023-02-13T09:21:53;9.98;;;3.20;;
69253;SDS011;56364;41.816;12.448;2023-02-13T09:24:19;8.05;;;3.58;;
69253;SDS011;56364;41.816;12.448;2023-02-13T09:26:45;12.63;;;3.17;;
69253;SDS011;56364;41.816;12.448;2023-02-13T09:29:14;8.95;;;2.38;;
69253;SDS011;56364;41.816;12.448;2023-02-13T09:31:40;12.50;;;3.03;;
69253;SDS011;56364;41.816;12.448;2023-02-13T09:34:06;7.30;;;3.10;;
69253;SDS011;56364;41.816;12.448;2023-02-13T09:36:32;7.15;;;3.05;;
69253;SDS011;56364;41.816;12.448;2023-02-13T09:39:00;9.13;;;3.42;;
69253;SDS011;56364;41.816;12.448;2023-02-13T09:41:30;9.43;;;3.15;;
69253;SDS011;56364;41.816;12.448;2023-02-13T09:43:58;9.30;;;3.25;;
69253;SDS011;56364;41.816;12.448;2023-02-13T09:46:29;7.18;;;2.25;;
69253;SDS011;56364;41.816;12.448;2023-02-13T09:48:57;14.75;;;3.20;;
69253;SDS011;56364;41.816;12.448;2023-02-13T09:51:24;9.20;;;3.70;;
69253;SDS011;56364;41.816;12.448;2023-02-13T09:53:59;7.80;;;2.75;;
69253;SDS011;56364;41.816;12.448;2023-02-13T09:59:17;5.05;;;2.90;;
69253;SDS011;56364;41.816;12.448;2023-02-13T10:01:52;7.88;;;2.60;;
69253;SDS011;56364;41.816;12.448;2023-02-13T10:04:23;6.53;;;3.20;;
69253;SDS011;56364;41.816;12.448;2023-02-13T10:07:13;9.30;;;2.88;;
69253;SDS011;56364;41.816;12.448;2023-02-13T10:17:35;12.60;;;2.83;;
69253;SDS011;56364;41.816;12.448;2023-02-13T10:22:45;11.73;;;3.08;;
69253;SDS011;56364;41.816;12.448;2023-02-13T10:25:15;9.65;;;2.70;;
69253;SDS011;56364;41.816;12.448;2023-02-13T10:27:43;8.00;;;2.40;;
69253;SDS011;56364;41.816;12.448;2023-02-13T10:35:22;8.77;;;2.75;;
69253;SDS011;56364;41.816;12.448;2023-02-13T10:37:49;6.07;;;2.65;;
69253;SDS011;56364;41.816;12.448;2023-02-13T10:40:17;5.22;;;2.67;;
69253;SDS011;56364;41.816;12.448;2023-02-13T10:42:44;7.35;;;3.22;;
69253;SDS011;56364;41.816;12.448;2023-02-13T10:45:23;8.73;;;2.83;;
69253;SDS011;56364;41.816;12.448;2023-02-13T10:48:01;6.25;;;2.63;;
69253;SDS011;56364;41.816;12.448;2023-02-13T10:50:35;5.18;;;2.42;;
69253;SDS011;56364;41.816;12.448;2023-02-13T11:03:28;7.45;;;2.75;;
69253;SDS011;56364;41.816;12.448;2023-02-13T11:05:55;8.90;;;3.40;;
69253;SDS011;56364;41.816;12.448;2023-02-13T11:08:24;8.30;;;3.05;;
69253;SDS011;56364;41.816;12.448;2023-02-13T11:10:50;9.02;;;2.67;;
69253;SDS011;56364;41.816;12.448;2023-02-13T11:13:20;7.25;;;3.15;;
69253;SDS011;56364;41.816;12.448;2023-02-13T11:16:03;8.40;;;3.20;;
69253;SDS011;56364;41.816;12.448;2023-02-13T11:18:31;9.00;;;3.17;;
69253;SDS011;56364;41.816;12.448;2023-02-13T11:21:03;9.05;;;3.00;;
69253;SDS011;56364;41.816;12.448;2023-02-13T11:23:43;8.68;;;3.08;;
69253;SDS011;56364;41.816;12.448;2023-02-13T11:26:13;8.85;;;2.95;;
69253;SDS011;56364;41.816;12.448;2023-02-13T11:28:46;6.93;;;2.97;;
69253;SDS011;56364;41.816;12.448;2023-02-13T11:33:52;7.68;;;2.70;;
69253;SDS011;56364;41.816;12.448;2023-02-13T11:36:31;6.30;;;2.65;;
69253;SDS011;56364;41.816;12.448;2023-02-13T11:39:02;5.57;;;2.80;;
69253;SDS011;56364;41.816;12.448;2023-02-13T11:41:36;7.80;;;3.25;;
69253;SDS011;56364;41.816;12.448;2023-02-13T11:44:04;6.55;;;3.10;;
69253;SDS011;56364;41.816;12.448;2023-02-13T11:46:45;7.82;;;2.90;;
69253;SDS011;56364;41.816;12.448;2023-02-13T11:49:18;8.73;;;3.25;;
69253;SDS011;56364;41.816;12.448;2023-02-13T11:51:46;8.75;;;3.42;;
69253;SDS011;56364;41.816;12.448;2023-02-13T11:54:18;6.43;;;2.78;;
69253;SDS011;56364;41.816;12.448;2023-02-13T11:56:51;8.10;;;2.70;;
69253;SDS011;56364;41.816;12.448;2023-02-13T11:59:21;4.20;;;2.28;;
69253;SDS011;56364;41.816;12.448;2023-02-13T12:04:36;6.70;;;2.60;;
69253;SDS011;56364;41.816;12.448;2023-02-13T12:09:38;7.93;;;3.00;;
69253;SDS011;56364;41.816;12.448;2023-02-13T12:12:08;4.30;;;2.45;;
69253;SDS011;56364;41.816;12.448;2023-02-13T12:14:37;8.65;;;2.08;;
69253;SDS011;56364;41.816;12.448;2023-02-13T12:17:20;4.97;;;1.80;;
69253;SDS011;56364;41.816;12.448;2023-02-13T12:20:10;8.55;;;1.95;;
69253;SDS011;56364;41.816;12.448;2023-02-13T12:35:34;4.95;;;1.77;;
69253;SDS011;56364;41.816;12.448;2023-02-13T12:48:21;5.10;;;2.42;;
69253;SDS011;56364;41.816;12.448;2023-02-13T12:50:55;7.00;;;2.28;;
69253;SDS011;56364;41.816;12.448;2023-02-13T12:59:18;5.50;;;2.35;;
69253;SDS011;56364;41.816;12.448;2023-02-13T13:44:19;4.15;;;1.52;;
69253;SDS011;56364;41.816;12.448;2023-02-13T13:47:02;3.50;;;1.55;;
69253;SDS011;56364;41.816;12.448;2023-02-13T13:49:48;5.93;;;1.35;;
69253;SDS011;56364;41.816;12.448;2023-02-13T13:52:30;4.05;;;1.83;;
69253;SDS011;56364;41.816;12.448;2023-02-13T13:54:57;4.53;;;1.77;;
69253;SDS011;56364;41.816;12.448;2023-02-13T14:00:00;3.80;;;1.48;;
69253;SDS011;56364;41.816;12.448;2023-02-13T14:47:37;7.63;;;1.95;;
69253;SDS011;56364;41.816;12.448;2023-02-13T15:08:24;3.78;;;1.42;;
69253;SDS011;56364;41.816;12.448;2023-02-13T15:10:56;2.90;;;1.42;;
69253;SDS011;56364;41.816;12.448;2023-02-13T15:13:24;4.13;;;1.42;;
69253;SDS011;56364;41.816;12.448;2023-02-13T15:23:42;3.63;;;1.35;;
69253;SDS011;56364;41.816;12.448;2023-02-13T15:26:16;4.07;;;1.80;;
69253;SDS011;56364;41.816;12.448;2023-02-13T15:28:45;3.15;;;1.88;;
69253;SDS011;56364;41.816;12.448;2023-02-13T15:31:29;2.45;;;1.20;;
69253;SDS011;56364;41.816;12.448;2023-02-13T15:34:02;4.68;;;1.70;;
69253;SDS011;56364;41.816;12.448;2023-02-13T17:41:14;9.55;;;3.75;;
69253;SDS011;56364;41.816;12.448;2023-02-13T17:43:41;17.42;;;5.40;;
69253;SDS011;56364;41.816;12.448;2023-02-13T17:46:09;17.88;;;5.30;;
69253;SDS011;56364;41.816;12.448;2023-02-13T17:48:36;13.82;;;4.35;;
69253;SDS011;56364;41.816;12.448;2023-02-13T17:51:02;10.15;;;4.20;;
69253;SDS011;56364;41.816;12.448;2023-02-13T17:53:29;14.93;;;4.68;;
69253;SDS011;56364;41.816;12.448;2023-02-13T17:58:25;11.23;;;4.38;;
69253;SDS011;56364;41.816;12.448;2023-02-13T18:00:51;13.65;;;5.15;;
69253;SDS011;56364;41.816;12.448;2023-02-13T18:03:18;17.40;;;5.10;;
69253;SDS011;56364;41.816;12.448;2023-02-13T18:05:47;15.95;;;5.38;;
69253;SDS011;56364;41.816;12.448;2023-02-13T18:08:15;15.93;;;5.05;;
69253;SDS011;56364;41.816;12.448;2023-02-13T19:44:19;13.15;;;5.15;;
69253;SDS011;56364;41.816;12.448;2023-02-13T19:46:45;13.05;;;4.90;;
69253;SDS011;56364;41.816;12.448;2023-02-13T19:49:12;13.90;;;4.65;;
69253;SDS011;56364;41.816;12.448;2023-02-13T19:51:38;14.13;;;5.20;;
69253;SDS011;56364;41.816;12.448;2023-02-13T19:54:06;12.32;;;5.22;;
69253;SDS011;56364;41.816;12.448;2023-02-13T19:56:34;14.05;;;5.28;;
69253;SDS011;56364;41.816;12.448;2023-02-13T19:59:00;18.20;;;7.32;;
69253;SDS011;56364;41.816;12.448;2023-02-13T20:01:27;14.25;;;6.45;;
69253;SDS011;56364;41.816;12.448;2023-02-13T20:03:54;17.48;;;6.40;;
69253;SDS011;56364;41.816;12.448;2023-02-13T20:06:22;17.92;;;7.28;;
69253;SDS011;56364;41.816;12.448;2023-02-13T20:08:49;12.85;;;5.45;;
69253;SDS011;56364;41.816;12.448;2023-02-13T20:11:16;12.57;;;6.28;;
69253;SDS011;56364;41.816;12.448;2023-02-13T20:13:42;19.98;;;7.38;;
69253;SDS011;56364;41.816;12.448;2023-02-13T20:16:10;18.20;;;7.25;;
69253;SDS011;56364;41.816;12.448;2023-02-13T20:18:38;18.77;;;7.38;;
69253;SDS011;56364;41.816;12.448;2023-02-13T20:21:11;22.35;;;8.38;;
69253;SDS011;56364;41.816;12.448;2023-02-13T20:23:37;17.58;;;8.02;;
69253;SDS011;56364;41.816;12.448;2023-02-13T20:26:04;18.05;;;7.82;;
69253;SDS011;56364;41.816;12.448;2023-02-13T20:28:30;17.40;;;6.82;;
69253;SDS011;56364;41.816;12.448;2023-02-13T20:30:57;22.52;;;8.75;;
69253;SDS011;56364;41.816;12.448;2023-02-13T20:33:24;25.95;;;6.68;;
69253;SDS011;56364;41.816;12.448;2023-02-13T20:38:59;19.70;;;7.78;;
69253;SDS011;56364;41.816;12.448;2023-02-13T20:42:03;20.23;;;7.95;;
69253;SDS011;56364;41.816;12.448;2023-02-13T20:44:51;22.27;;;7.88;;
69253;SDS011;56364;41.816;12.448;2023-02-13T20:47:19;26.05;;;8.65;;
69253;SDS011;56364;41.816;12.448;2023-02-13T20:49:53;21.67;;;9.18;;
69253;SDS011;56364;41.816;12.448;2023-02-13T20:52:20;24.25;;;9.25;;
69253;SDS011;56364;41.816;12.448;2023-02-13T20:54:46;19.63;;;8.95;;
69253;SDS011;56364;41.816;12.448;2023-02-13T20:57:15;26.35;;;9.45;;
69253;SDS011;56364;41.816;12.448;2023-02-13T20:59:41;21.33;;;9.75;;
69253;SDS011;56364;41.816;12.448;2023-02-13T21:02:10;27.70;;;10.60;;
69253;SDS011;56364;41.816;12.448;2023-02-13T21:04:42;23.92;;;10.23;;
69253;SDS011;56364;41.816;12.448;2023-02-13T21:07:28;17.05;;;8.07;;
69253;SDS011;56364;41.816;12.448;2023-02-13T21:12:50;28.45;;;9.63;;
69253;SDS011;56364;41.816;12.448;2023-02-13T21:15:16;15.65;;;7.20;;
69253;SDS011;56364;41.816;12.448;2023-02-13T21:17:45;17.08;;;7.50;;
69253;SDS011;56364;41.816;12.448;2023-02-13T21:20:12;18.67;;;8.00;;
69253;SDS011;56364;41.816;12.448;2023-02-13T21:22:41;19.30;;;7.90;;
69253;SDS011;56364;41.816;12.448;2023-02-13T21:25:10;25.50;;;9.00;;
69253;SDS011;56364;41.816;12.448;2023-02-13T21:27:39;18.88;;;9.57;;
69253;SDS011;56364;41.816;12.448;2023-02-13T21:32:45;24.83;;;10.13;;
69253;SDS011;56364;41.816;12.448;2023-02-13T21:35:14;25.45;;;10.68;;
69253;SDS011;56364;41.816;12.448;2023-02-13T21:37:43;24.65;;;9.02;;
69253;SDS011;56364;41.816;12.448;2023-02-13T21:40:32;28.55;;;10.02;;
69253;SDS011;56364;41.816;12.448;2023-02-13T21:43:52;22.38;;;8.85;;
69253;SDS011;56364;41.816;12.448;2023-02-13T21:46:36;25.90;;;9.02;;
69253;SDS011;56364;41.816;12.448;2023-02-13T21:51:59;16.65;;;8.73;;
69253;SDS011;56364;41.816;12.448;2023-02-13T21:54:31;21.17;;;8.85;;
69253;SDS011;56364;41.816;12.448;2023-02-13T21:57:10;21.98;;;9.35;;
69253;SDS011;56364;41.816;12.448;2023-02-13T21:59:38;23.15;;;9.35;;
69253;SDS011;56364;41.816;12.448;2023-02-13T22:02:14;21.70;;;8.23;;
69253;SDS011;56364;41.816;12.448;2023-02-13T22:04:40;19.90;;;9.57;;
69253;SDS011;56364;41.816;12.448;2023-02-13T22:07:09;24.38;;;9.63;;
69253;SDS011;56364;41.816;12.448;2023-02-13T22:09:36;20.55;;;7.72;;
69253;SDS011;56364;41.816;12.448;2023-02-13T22:20:16;20.80;;;8.98;;
69253;SDS011;56364;41.816;12.448;2023-02-13T22:22:44;20.52;;;8.25;;
69253;SDS011;56364;41.816;12.448;2023-02-13T22:25:11;23.02;;;9.38;;
69253;SDS011;56364;41.816;12.448;2023-02-13T22:27:48;21.50;;;8.48;;